| Ref | Fabricant | Nom | Plugin | Version plugin | Protocole | Type | Spécification | Lien | Date | |||
![]() | 4512782 / 4512781 / 4566700 / 4566701 | Namron | 4512782 / 4512781 / 4566700 / 4566701 | JeeZigbee | zigbee | Puissance | Documentation | 2026-08-27 02:42:25 | ||||
![]() | 4512788 | Namron | 4512788 | JeeZigbee | zigbee | Puissance | Documentation | 2026-08-27 02:42:25 | ||||
![]() | 4512772 | Namron | 4512772 | JeeZigbee | zigbee | Documentation | 2026-08-27 02:42:24 | |||||
![]() | 4512776/4512777 | Namron | 4512776/4512777 | JeeZigbee | zigbee | Serrure Température Puissance | Documentation | 2026-08-27 02:42:24 | ||||
![]() | 4512768 | Namron | 4512768 | JeeZigbee | zigbee | Puissance | Documentation | 2026-08-27 02:42:23 | ||||
![]() | 4512771 | Namron | 4512771 | JeeZigbee | zigbee | Température Humidité | Documentation | 2026-08-27 02:42:23 | ||||
![]() | 4512765 | Namron | 4512765 | JeeZigbee | zigbee | Température Humidité | Documentation | 2026-08-27 02:42:22 | ||||
![]() | 4512766 | Namron | 4512766 | JeeZigbee | zigbee | Puissance | Documentation | 2026-08-27 02:42:22 | ||||
![]() | 4512767 | Namron | 4512767 | JeeZigbee | zigbee | Puissance | Documentation | 2026-08-27 02:42:22 | ||||
![]() | 4512762 | Namron | 4512762 | JeeZigbee | zigbee | Documentation | 2026-08-27 02:42:21 | |||||
![]() | 4512763 | Namron | 4512763 | JeeZigbee | zigbee | Documentation | 2026-08-27 02:42:21 | |||||
![]() | 4512764 | Namron | 4512764 | JeeZigbee | zigbee | Documentation | 2026-08-27 02:42:21 | |||||
![]() | 4512761 | Namron | 4512761 | JeeZigbee | zigbee | Puissance | Documentation | 2026-08-27 02:42:20 | ||||
![]() | 4512759 | Namron | 4512759 | JeeZigbee | zigbee | Lumière Interrupteur Serrure Température Puissance | Documentation | 2026-08-27 02:42:19 | ||||
![]() | 4512760 | Namron | 4512760 | JeeZigbee | zigbee | Puissance | Documentation | 2026-08-27 02:42:19 | ||||
![]() | 4512752/4512753 | Namron | 4512752/4512753 | JeeZigbee | zigbee | Interrupteur Serrure Température Puissance | Documentation | 2026-08-27 02:42:18 | ||||
![]() | 4512758 | Namron | 4512758 | JeeZigbee | zigbee | Lumière Interrupteur Serrure Température Puissance | Documentation | 2026-08-27 02:42:18 | ||||
![]() | 4512749 | Namron | 4512749 | JeeZigbee | zigbee | Interrupteur Puissance | Documentation | 2026-08-27 02:42:17 | ||||
![]() | 4512750 | Namron | 4512750 | JeeZigbee | zigbee | Documentation | 2026-08-27 02:42:17 | |||||
![]() | 4512737/4512738 | Namron | 4512737/4512738 | JeeZigbee | zigbee | Serrure Température Puissance | Documentation | 2026-08-27 02:42:16 | ||||
![]() | 4512739 | Namron | 4512739 | JeeZigbee | zigbee | Puissance | Documentation | 2026-08-27 02:42:16 | ||||
![]() | 4512747 | Namron | 4512747 | JeeZigbee | zigbee | Documentation | 2026-08-27 02:42:16 | |||||
![]() | 4512729 | Namron | 4512729 | JeeZigbee | zigbee | Documentation | 2026-08-27 02:42:15 | |||||
![]() | 4512735 | Namron | 4512735 | JeeZigbee | zigbee | Documentation | 2026-08-27 02:42:15 | |||||
![]() | 4512721 | Namron | 4512721 | JeeZigbee | zigbee | Documentation | 2026-08-27 02:42:14 | |||||
![]() | 4512726 | Namron | 4512726 | JeeZigbee | zigbee | Documentation | 2026-08-27 02:42:14 | |||||
![]() | 4512728 | Namron | 4512728 | JeeZigbee | zigbee | Documentation | 2026-08-27 02:42:14 | |||||
![]() | 4512707 | Namron | 4512707 | JeeZigbee | zigbee | Documentation | 2026-08-27 02:42:13 | |||||
![]() | 4512708 | Namron | 4512708 | JeeZigbee | zigbee | Documentation | 2026-08-27 02:42:13 | |||||
![]() | 4512719 | Namron | 4512719 | JeeZigbee | zigbee | Documentation | 2026-08-27 02:42:13 | |||||
![]() | 4512704 | Namron | 4512704 | JeeZigbee | zigbee | Documentation | 2026-08-27 02:42:12 | |||||
![]() | 4512705 | Namron | 4512705 | JeeZigbee | zigbee | Documentation | 2026-08-27 02:42:12 | |||||
![]() | 4512706 | Namron | 4512706 | JeeZigbee | zigbee | Documentation | 2026-08-27 02:42:12 | |||||
![]() | 4512701 | Namron | 4512701 | JeeZigbee | zigbee | Documentation | 2026-08-27 02:42:11 | |||||
![]() | 4512702 | Namron | 4512702 | JeeZigbee | zigbee | Documentation | 2026-08-27 02:42:11 | |||||
![]() | 4512703 | Namron | 4512703 | JeeZigbee | zigbee | Documentation | 2026-08-27 02:42:11 | |||||
![]() | 4507748C5 | Philips | 4507748C5 | JeeZigbee | zigbee | Documentation | 2026-08-27 02:42:10 | |||||
![]() | 4509243 | Futurehome | 4509243 | JeeZigbee | zigbee | Documentation | 2026-08-27 02:42:10 | |||||
![]() | 4512700 | Namron | 4512700 | JeeZigbee | zigbee | Documentation | 2026-08-27 02:42:10 | |||||
![]() | 4503748C6 | Philips | 4503748C6 | JeeZigbee | zigbee | Documentation | 2026-08-27 02:42:09 | |||||
![]() | 4503848C5 | Philips | 4503848C5 | JeeZigbee | zigbee | Documentation | 2026-08-27 02:42:09 | |||||
![]() | 4505748C5 | Philips | 4505748C5 | JeeZigbee | zigbee | Documentation | 2026-08-27 02:42:09 | |||||
![]() | 4505848C5 | Philips | 4505848C5 | JeeZigbee | zigbee | Documentation | 2026-08-27 02:42:09 | |||||
![]() | 442296118491 | Philips | 442296118491 | JeeZigbee | zigbee | Documentation | 2026-08-27 02:42:08 | |||||
![]() | 44435 | Müller Licht | 44435 | JeeZigbee | zigbee | Documentation | 2026-08-27 02:42:08 | |||||
![]() | 4503145 | CTM Lyng | 4503145 | JeeZigbee | zigbee | Lumière | Documentation | 2026-08-27 02:42:08 | ||||
![]() | 43132 | Jasco | 43132 | JeeZigbee | zigbee | Puissance | Documentation | 2026-08-27 02:42:07 | ||||
![]() | 433714 | Philips | 433714 | JeeZigbee | zigbee | Documentation | 2026-08-27 02:42:07 | |||||
![]() | 4411C/L4411C/N4411C/NT4411C | BTicino | 4411C/L4411C/N4411C/NT4411C | JeeZigbee | zigbee | Lumière | Documentation | 2026-08-27 02:42:07 | ||||
![]() | 43102 | Enbrighten | 43102 | JeeZigbee | zigbee | Interrupteur | Documentation | 2026-08-27 02:42:06 | ||||
![]() | 43109 | Enbrighten | 43109 | JeeZigbee | zigbee | Interrupteur | Documentation | 2026-08-27 02:42:06 | ||||
![]() | 43113 | Enbrighten | 43113 | JeeZigbee | zigbee | Lumière | Documentation | 2026-08-27 02:42:06 | ||||
![]() | 43094 | Enbrighten | 43094 | JeeZigbee | zigbee | Interrupteur | Documentation | 2026-08-27 02:42:05 | ||||
![]() | 43095 | Jasco Products | 43095 | JeeZigbee | zigbee | Puissance | Documentation | 2026-08-27 02:42:05 | ||||
![]() | 43100 | Enbrighten | 43100 | JeeZigbee | zigbee | Interrupteur | Documentation | 2026-08-27 02:42:05 | ||||
![]() | 43082 | Enbrighten | 43082 | JeeZigbee | zigbee | Lumière Puissance | Documentation | 2026-08-27 02:42:04 | ||||
![]() | 43084 | Enbrighten | 43084 | JeeZigbee | zigbee | Interrupteur | Documentation | 2026-08-27 02:42:04 | ||||
![]() | 43076 | Enbrighten | 43076 | JeeZigbee | zigbee | Interrupteur | Documentation | 2026-08-27 02:42:03 | ||||
![]() | 43078 | Enbrighten | 43078 | JeeZigbee | zigbee | Interrupteur Puissance | Documentation | 2026-08-27 02:42:03 | ||||
![]() | 4256251-RZHAC | Centralite | 4256251-RZHAC | JeeZigbee | zigbee | Puissance | Documentation | 2026-08-27 02:42:02 | ||||
![]() | 4257050-RZHAC | Centralite | 4257050-RZHAC | JeeZigbee | zigbee | Puissance | Documentation | 2026-08-27 02:42:02 | ||||
![]() | 4257050-ZHAC | Centralite | 4257050-ZHAC | JeeZigbee | zigbee | Puissance | Documentation | 2026-08-27 02:42:02 | ||||
![]() | 43023 | VBLED | 43023 | JeeZigbee | zigbee | Documentation | 2026-08-27 02:42:02 | |||||
![]() | 421792 | Calex | 421792 | JeeZigbee | zigbee | Documentation | 2026-08-27 02:42:01 | |||||
![]() | 4256050-RZHAC | Centralite | 4256050-RZHAC | JeeZigbee | zigbee | Puissance | Documentation | 2026-08-27 02:42:01 | ||||
![]() | 4256050-ZHAC | Centralite | 4256050-ZHAC | JeeZigbee | zigbee | Puissance | Documentation | 2026-08-27 02:42:01 | ||||
![]() | 4200-C | Centralite | 4200-C | JeeZigbee | zigbee | Documentation | 2026-08-27 02:42:00 | |||||
![]() | 421782 | Calex | 421782 | JeeZigbee | zigbee | Documentation | 2026-08-27 02:42:00 | |||||
![]() | 421786 | Calex | 421786 | JeeZigbee | zigbee | Documentation | 2026-08-27 02:42:00 | |||||
![]() | 41EPBDWCLMZ/354PBDMBTZ | Schneider Electric | 41EPBDWCLMZ/354PBDMBTZ | JeeZigbee | zigbee | Documentation | 2026-08-27 02:41:59 | |||||
![]() | 42-032 | Light Solutions | 42-032 | JeeZigbee | zigbee | Documentation | 2026-08-27 02:41:59 | |||||
![]() | 4137 | Paulmann | 4137 | JeeZigbee | zigbee | Documentation | 2026-08-27 02:41:58 | |||||
![]() | 41E10PBSWMZ-VW | Schneider Electric | 41E10PBSWMZ-VW | JeeZigbee | zigbee | Documentation | 2026-08-27 02:41:58 | |||||
![]() | 41E2PBSWMZ/356PB2MBTZ | Schneider Electric | 41E2PBSWMZ/356PB2MBTZ | JeeZigbee | zigbee | Documentation | 2026-08-27 02:41:58 | |||||
![]() | 41ECSFWMZ-VW | Schneider Electric | 41ECSFWMZ-VW | JeeZigbee | zigbee | Documentation | 2026-08-27 02:41:58 | |||||
![]() | 412172 | Legrand | 412172 | JeeZigbee | zigbee | Documentation | 2026-08-27 02:41:57 | |||||
![]() | 412173 | Legrand | 412173 | JeeZigbee | zigbee | Interrupteur | Documentation | 2026-08-27 02:41:57 | ||||
![]() | 412175 | Legrand | 412175 | JeeZigbee | zigbee | Documentation | 2026-08-27 02:41:57 | |||||
![]() | 412015 | Legrand | 412015 | JeeZigbee | zigbee | Documentation | 2026-08-27 02:41:56 | |||||
![]() | 412170 | Legrand | 412170 | JeeZigbee | zigbee | Interrupteur | Documentation | 2026-08-27 02:41:56 | ||||
![]() | 4099854513718 | LEDVANCE | 4099854513718 | JeeZigbee | zigbee | Documentation | 2026-08-27 02:41:55 | |||||
![]() | 40ZH-O | Aubess | 40ZH-O | JeeZigbee | zigbee | Documentation | 2026-08-27 02:41:55 | |||||
![]() | 4100448U9 | Philips | 4100448U9 | JeeZigbee | zigbee | Documentation | 2026-08-27 02:41:55 | |||||
![]() | 4099854295256 | LEDVANCE | 4099854295256 | JeeZigbee | zigbee | Puissance | Documentation | 2026-08-27 02:41:54 | ||||
![]() | 4099854461767/4099854461774 | OSRAM | 4099854461767/4099854461774 | JeeZigbee | zigbee | Documentation | 2026-08-27 02:41:54 | |||||
![]() | 4096730U7 | Philips | 4096730U7 | JeeZigbee | zigbee | Documentation | 2026-08-27 02:41:53 | |||||
![]() | 4098430P7 | Philips | 4098430P7 | JeeZigbee | zigbee | Documentation | 2026-08-27 02:41:53 | |||||
![]() | 4099854293276 | LEDVANCE | 4099854293276 | JeeZigbee | zigbee | Puissance | Documentation | 2026-08-27 02:41:53 | ||||
![]() | 4099854295232 | LEDVANCE | 4099854295232 | JeeZigbee | zigbee | Puissance | Documentation | 2026-08-27 02:41:53 | ||||
![]() | 4090631P9 | Philips | 4090631P9 | JeeZigbee | zigbee | Documentation | 2026-08-27 02:41:52 | |||||
![]() | 4090631U9 | Philips | 4090631U9 | JeeZigbee | zigbee | Documentation | 2026-08-27 02:41:52 | |||||
![]() | 4096730P6 | Philips | 4096730P6 | JeeZigbee | zigbee | Documentation | 2026-08-27 02:41:52 | |||||
![]() | 4090531P7 | Philips | 4090531P7 | JeeZigbee | zigbee | Documentation | 2026-08-27 02:41:51 | |||||
![]() | 4090531P9 | Philips | 4090531P9 | JeeZigbee | zigbee | Documentation | 2026-08-27 02:41:51 | |||||
![]() | 4090631P7 | Philips | 4090631P7 | JeeZigbee | zigbee | Documentation | 2026-08-27 02:41:51 | |||||
![]() | 4090330P9 | Philips | 4090330P9 | JeeZigbee | zigbee | Documentation | 2026-08-27 02:41:50 | |||||
![]() | 4090331P9 | Philips | 4090331P9 | JeeZigbee | zigbee | Documentation | 2026-08-27 02:41:50 | |||||
![]() | 4090431P9 | Philips | 4090431P9 | JeeZigbee | zigbee | Documentation | 2026-08-27 02:41:50 | |||||
![]() | 4090130P9 | Philips | 4090130P9 | JeeZigbee | zigbee | Documentation | 2026-08-27 02:41:49 | |||||
![]() | 4090230P9 | Philips | 4090230P9 | JeeZigbee | zigbee | Documentation | 2026-08-27 02:41:49 | |||||
![]() | 4090231P9 | Philips | 4090231P9 | JeeZigbee | zigbee | Documentation | 2026-08-27 02:41:49 | |||||
![]() | 4080248P9 | Philips | 4080248P9 | JeeZigbee | zigbee | Documentation | 2026-08-27 02:41:48 | |||||
![]() | 4080248U9 | Philips | 4080248U9 | JeeZigbee | zigbee | Documentation | 2026-08-27 02:41:48 | |||||
![]() | 4080148P9 | Philips | 4080148P9 | JeeZigbee | zigbee | Documentation | 2026-08-27 02:41:47 | |||||
![]() | 4080148U9 | Philips | 4080148U9 | JeeZigbee | zigbee | Documentation | 2026-08-27 02:41:47 | |||||
![]() | 4080248P7 | Philips | 4080248P7 | JeeZigbee | zigbee | Documentation | 2026-08-27 02:41:47 | |||||
![]() | 4076130P6 | Philips | 4076130P6 | JeeZigbee | zigbee | Documentation | 2026-08-27 02:41:46 | |||||
![]() | 4076131P6 | Philips | 4076131P6 | JeeZigbee | zigbee | Documentation | 2026-08-27 02:41:46 | |||||
![]() | 4062172044776_2 | OSRAM | 4062172044776_2 | JeeZigbee | zigbee | Documentation | 2026-08-27 02:41:45 | |||||
![]() | 4062172044776_3 | OSRAM | 4062172044776_3 | JeeZigbee | zigbee | Documentation | 2026-08-27 02:41:45 | |||||
![]() | 3RSPE01044BZ | Third Reality | 3RSPE01044BZ | JeeZigbee | zigbee | Puissance | Documentation | 2026-08-27 02:41:13 | ||||
![]() | 3RSPJ0187Z | Third Reality | 3RSPJ0187Z | JeeZigbee | zigbee | Puissance | Documentation | 2026-08-27 02:41:13 | ||||
![]() | 3RSMR01067Z | Third Reality | 3RSMR01067Z | JeeZigbee | zigbee | Documentation | 2026-08-27 02:41:11 | |||||
![]() | 3RSP0186Z | Third Reality | 3RSP0186Z | JeeZigbee | zigbee | Puissance | Documentation | 2026-08-27 02:41:11 | ||||
![]() | 3RSL011Z | Third Reality | 3RSL011Z | JeeZigbee | zigbee | Documentation | 2026-08-27 02:41:09 | |||||
![]() | 3RSB015BZ | Third Reality | 3RSB015BZ | JeeZigbee | zigbee | Documentation | 2026-08-27 02:41:08 | |||||
![]() | 3RPL01084Z | Third Reality | 3RPL01084Z | JeeZigbee | zigbee | Lumière | Documentation | 2026-08-27 02:41:07 | ||||
![]() | 3RDS17BZ | Third Reality | 3RDS17BZ | JeeZigbee | zigbee | Documentation | 2026-08-27 02:41:06 | |||||
![]() | 3RCB02070Z | Third Reality | 3RCB02070Z | JeeZigbee | zigbee | Documentation | 2026-08-27 02:41:05 | |||||
![]() | 3RAP0149BZ | Third Reality | 3RAP0149BZ | JeeZigbee | zigbee | Documentation | 2026-08-27 02:41:04 | |||||
![]() | 3802966 | Namron | 3802966 | JeeZigbee | zigbee | Documentation | 2026-08-27 02:41:03 | |||||
![]() | 3802968 | Namron | 3802968 | JeeZigbee | zigbee | Documentation | 2026-08-27 02:41:03 | |||||
![]() | 3802963 | Namron | 3802963 | JeeZigbee | zigbee | Documentation | 2026-08-27 02:41:02 | |||||
![]() | 3802960 | Namron | 3802960 | JeeZigbee | zigbee | Documentation | 2026-08-27 02:41:01 | |||||
![]() | 3802961 | Namron | 3802961 | JeeZigbee | zigbee | Documentation | 2026-08-27 02:41:01 | |||||
![]() | 371050043 | Paulmann | 371050043 | JeeZigbee | zigbee | Documentation | 2026-08-27 02:41:00 | |||||
![]() | 371232040 | Paulmann | 371232040 | JeeZigbee | zigbee | Documentation | 2026-08-27 02:41:00 | |||||
![]() | 37022714 | Homeetec | 37022714 | JeeZigbee | zigbee | Lumière | Documentation | 2026-08-27 02:40:59 | ||||
![]() | 371000002 | Paulmann | 371000002 | JeeZigbee | zigbee | Documentation | 2026-08-27 02:40:59 | |||||
![]() | 37022474_2 | RoomsAI | 37022474_2 | JeeZigbee | zigbee | Lumière | Documentation | 2026-08-27 02:40:58 | ||||
![]() | 37022173 | Homeetec | 37022173 | JeeZigbee | zigbee | Lumière Interrupteur Serrure | Documentation | 2026-08-27 02:40:57 | ||||
![]() | 37022463-1 | Homeetec | 37022463-1 | JeeZigbee | zigbee | Lumière | Documentation | 2026-08-27 02:40:57 | ||||
![]() | 35104001 | Rademacher | 35104001 | JeeZigbee | zigbee | Documentation | 2026-08-27 02:40:56 | |||||
![]() | 3435731P7 | Philips | 3435731P7 | JeeZigbee | zigbee | Documentation | 2026-08-27 02:40:55 | |||||
![]() | 3418931P6 | Philips | 3418931P6 | JeeZigbee | zigbee | Documentation | 2026-08-27 02:40:54 | |||||
| 3418131P6 | Philips | 3418131P6 | JeeZigbee | zigbee | Documentation | 2026-08-27 02:40:53 | ||||||
![]() | 3418331P6 | Philips | 3418331P6 | JeeZigbee | zigbee | Documentation | 2026-08-27 02:40:53 | |||||
![]() | 3417931P6 | Philips | 3417931P6 | JeeZigbee | zigbee | Documentation | 2026-08-27 02:40:52 | |||||
![]() | 3402831P7 | Philips | 3402831P7 | JeeZigbee | zigbee | Documentation | 2026-08-27 02:40:51 | |||||
![]() | 3417511P9 | Philips | 3417511P9 | JeeZigbee | zigbee | Documentation | 2026-08-27 02:40:51 | |||||
![]() | 3417711P6 | Philips | 3417711P6 | JeeZigbee | zigbee | Documentation | 2026-08-27 02:40:51 | |||||
![]() | 33957 | AwoX | 33957 | JeeZigbee | zigbee | Documentation | 2026-08-27 02:40:50 | |||||
![]() | 3400-D | Centralite | 3400-D | JeeZigbee | zigbee | Température Présence | Documentation | 2026-08-27 02:40:50 | ||||
![]() | 33850000 | Philips | 33850000 | JeeZigbee | zigbee | Documentation | 2026-08-27 02:40:49 | |||||
![]() | 33943/33944/33946 | AwoX | 33943/33944/33946 | JeeZigbee | zigbee | Documentation | 2026-08-27 02:40:49 | |||||
![]() | 33952 | AwoX | 33952 | JeeZigbee | zigbee | Documentation | 2026-08-27 02:40:49 | |||||
![]() | 3325-S | SmartThings | 3325-S | JeeZigbee | zigbee | Présence | Documentation | 2026-08-27 02:40:48 | ||||
![]() | 3326-L | Iris | 3326-L | JeeZigbee | zigbee | Température | Documentation | 2026-08-27 02:40:48 | ||||
![]() | 3328-G | Centralite | 3328-G | JeeZigbee | zigbee | Température | Documentation | 2026-08-27 02:40:48 | ||||
![]() | 3320-L | Iris | 3320-L | JeeZigbee | zigbee | Température | Documentation | 2026-08-27 02:40:47 | ||||
![]() | 3321-S | SmartThings | 3321-S | JeeZigbee | zigbee | Contact | Documentation | 2026-08-27 02:40:47 | ||||
![]() | 3323-G | Centralite | 3323-G | JeeZigbee | zigbee | Température | Documentation | 2026-08-27 02:40:47 | ||||
![]() | 3315-L | Iris | 3315-L | JeeZigbee | zigbee | Documentation | 2026-08-27 02:40:46 | |||||
![]() | 3315-S | SmartThings | 3315-S | JeeZigbee | zigbee | Documentation | 2026-08-27 02:40:46 | |||||
![]() | 3310-S | SmartThings | 3310-S | JeeZigbee | zigbee | Humidité | Documentation | 2026-08-27 02:40:45 | ||||
![]() | 3315-G | SmartThings | 3315-G | JeeZigbee | zigbee | Documentation | 2026-08-27 02:40:45 | |||||
![]() | 3305-S | SmartThings | 3305-S | JeeZigbee | zigbee | Présence | Documentation | 2026-08-27 02:40:44 | ||||
![]() | 3306431P7 | Philips | 3306431P7 | JeeZigbee | zigbee | Documentation | 2026-08-27 02:40:44 | |||||
![]() | 3308431 | Namron | 3308431 | JeeZigbee | zigbee | Documentation | 2026-08-27 02:40:44 | |||||
![]() | 3261348P6 | Philips | 3261348P6 | JeeZigbee | zigbee | Documentation | 2026-08-27 02:40:43 | |||||
![]() | 3300-P | PEQ | 3300-P | JeeZigbee | zigbee | Contact | Documentation | 2026-08-27 02:40:43 | ||||
![]() | 3300-S | SmartThings | 3300-S | JeeZigbee | zigbee | Contact | Documentation | 2026-08-27 02:40:43 | ||||
![]() | 3261331P6 | Philips | 3261331P6 | JeeZigbee | zigbee | Documentation | 2026-08-27 02:40:42 | |||||
![]() | 3261331P7 | Philips | 3261331P7 | JeeZigbee | zigbee | Documentation | 2026-08-27 02:40:42 | |||||
![]() | 3261030P7 | Philips | 3261030P7 | JeeZigbee | zigbee | Documentation | 2026-08-27 02:40:41 | |||||
![]() | 3261031P6 | Philips | 3261031P6 | JeeZigbee | zigbee | Documentation | 2026-08-27 02:40:41 | |||||
![]() | 3261330P6 | Philips | 3261330P6 | JeeZigbee | zigbee | Documentation | 2026-08-27 02:40:41 | |||||
![]() | 322054 | Lanesto | 322054 | JeeZigbee | zigbee | Documentation | 2026-08-27 02:40:40 | |||||
![]() | 324131092621 | Philips | 324131092621 | JeeZigbee | zigbee | Documentation | 2026-08-27 02:40:40 | |||||
![]() | 3216331P6 | Philips | 3216331P6 | JeeZigbee | zigbee | Documentation | 2026-08-27 02:40:39 | |||||
![]() | 3216431P5 | Philips | 3216431P5 | JeeZigbee | zigbee | Documentation | 2026-08-27 02:40:39 | |||||
![]() | 3216231P5 | Philips | 3216231P5 | JeeZigbee | zigbee | Documentation | 2026-08-27 02:40:38 | |||||
![]() | 3216231P6 | Philips | 3216231P6 | JeeZigbee | zigbee | Documentation | 2026-08-27 02:40:38 | |||||
![]() | 3216331P5 | Philips | 3216331P5 | JeeZigbee | zigbee | Documentation | 2026-08-27 02:40:38 | |||||
![]() | 3210-L | Iris | 3210-L | JeeZigbee | zigbee | Puissance | Documentation | 2026-08-27 02:40:37 | ||||
![]() | 3216131P5 | Philips | 3216131P5 | JeeZigbee | zigbee | Documentation | 2026-08-27 02:40:37 | |||||
![]() | 3216131P6 | Philips | 3216131P6 | JeeZigbee | zigbee | Documentation | 2026-08-27 02:40:37 | |||||
![]() | 3200-de | Centralite | 3200-de | JeeZigbee | zigbee | Puissance | Documentation | 2026-08-27 02:40:36 | ||||
![]() | 3200-fr | Centralite | 3200-fr | JeeZigbee | zigbee | Puissance | Documentation | 2026-08-27 02:40:36 | ||||
![]() | 3200-gb | Centralite | 3200-gb | JeeZigbee | zigbee | Puissance | Documentation | 2026-08-27 02:40:36 | ||||
![]() | 3156105 | Centralite | 3156105 | JeeZigbee | zigbee | Température | Documentation | 2026-08-27 02:40:35 | ||||
![]() | 3157100 | Centralite | 3157100 | JeeZigbee | zigbee | Température | Documentation | 2026-08-27 02:40:35 | ||||
![]() | 316GLEDRF | ELKO | 316GLEDRF | JeeZigbee | zigbee | Documentation | 2026-08-27 02:40:35 | |||||
![]() | 303-0136 | HFH Solutions | 303-0136 | JeeZigbee | zigbee | Documentation | 2026-08-27 02:40:34 | |||||
![]() | 3115331PH | Philips | 3115331PH | JeeZigbee | zigbee | Documentation | 2026-08-27 02:40:34 | |||||
![]() | 31154 | Philips | 31154 | JeeZigbee | zigbee | Documentation | 2026-08-27 02:40:34 | |||||
![]() | 300-9715V10 | Sikom | 300-9715V10 | JeeZigbee | zigbee | Température | Documentation | 2026-08-27 02:40:33 | ||||
![]() | 3004482/3137308/3137309 | Light Solutions | 3004482/3137308/3137309 | JeeZigbee | zigbee | Documentation | 2026-08-27 02:40:33 | |||||
![]() | 300686 | EGLO | 300686 | JeeZigbee | zigbee | Documentation | 2026-08-27 02:40:33 | |||||
![]() | 3025CSGZ | Schneider Electric | 3025CSGZ | JeeZigbee | zigbee | Documentation | 2026-08-27 02:40:33 | |||||
![]() | 2CH-ZG-BOX-RELAY | Envilar | 2CH-ZG-BOX-RELAY | JeeZigbee | zigbee | Documentation | 2026-08-27 02:40:32 | |||||
![]() | 2CT | Tuya | 2CT | JeeZigbee | zigbee | Puissance | Documentation | 2026-08-27 02:40:32 | ||||
![]() | 2AJZ4KPBS | Konke | 2AJZ4KPBS | JeeZigbee | zigbee | Documentation | 2026-08-27 02:40:31 | |||||
![]() | 2AJZ4KPDR | Konke | 2AJZ4KPDR | JeeZigbee | zigbee | Documentation | 2026-08-27 02:40:31 | |||||
![]() | 2AJZ4KPFT | Konke | 2AJZ4KPFT | JeeZigbee | zigbee | Humidité | Documentation | 2026-08-27 02:40:31 | ||||
![]() | 2AJZ4KPKEY | Konke | 2AJZ4KPKEY | JeeZigbee | zigbee | Documentation | 2026-08-27 02:40:31 | |||||
![]() | 291.46 | Paulmann | 291.46 | JeeZigbee | zigbee | Documentation | 2026-08-27 02:40:30 | |||||
![]() | 291.48 | Paulmann | 291.48 | JeeZigbee | zigbee | Documentation | 2026-08-27 02:40:30 | |||||
![]() | 291.52 | Paulmann | 291.52 | JeeZigbee | zigbee | Documentation | 2026-08-27 02:40:30 | |||||
![]() | 27087-03 | Iris | 27087-03 | JeeZigbee | zigbee | Documentation | 2026-08-27 02:40:29 | |||||
![]() | 281506 | Legrand | 281506 | JeeZigbee | zigbee | Interrupteur | Documentation | 2026-08-27 02:40:29 | ||||
![]() | 288WZ | ONENUO | 288WZ | JeeZigbee | zigbee | Documentation | 2026-08-27 02:40:29 | |||||
![]() | 228WZH | Tuya | 228WZH | JeeZigbee | zigbee | Température Humidité | Documentation | 2026-08-27 02:40:28 | ||||
![]() | 25EB-1/30-TYZ | Shaman | 25EB-1/30-TYZ | JeeZigbee | zigbee | Volets | Documentation | 2026-08-27 02:40:28 | ||||
![]() | 2619839 | Handshake Finland | 2619839 | JeeZigbee | zigbee | Documentation | 2026-08-27 02:40:28 | |||||
![]() | 200403V2-B | Light Solutions | 200403V2-B | JeeZigbee | zigbee | Documentation | 2026-08-27 02:40:27 | |||||
![]() | 2189/1-xx | Bankamp | 2189/1-xx | JeeZigbee | zigbee | Documentation | 2026-08-27 02:40:27 | |||||
![]() | 22670 | GE | 22670 | JeeZigbee | zigbee | Documentation | 2026-08-27 02:40:27 | |||||
![]() | 1GNNTS | WETEN | 1GNNTS | JeeZigbee | zigbee | Documentation | 2026-08-27 02:40:26 | |||||
![]() | 1TST-EU | eCozy | 1TST-EU | JeeZigbee | zigbee | Température | Documentation | 2026-08-27 02:40:26 | ||||
![]() | 200106V3 | Light Solutions | 200106V3 | JeeZigbee | zigbee | Documentation | 2026-08-27 02:40:26 | |||||
![]() | 199182 | Legrand | 199182 | JeeZigbee | zigbee | Lumière | Documentation | 2026-08-27 02:40:25 | ||||
![]() | 19DZT | Tuya | 19DZT | JeeZigbee | zigbee | Documentation | 2026-08-27 02:40:25 | |||||
![]() | 1CH-HP-RELAY-7853 | Envilar | 1CH-HP-RELAY-7853 | JeeZigbee | zigbee | Puissance | Documentation | 2026-08-27 02:40:25 | ||||
![]() | 1871154 | Somfy | 1871154 | JeeZigbee | zigbee | Documentation | 2026-08-27 02:40:24 | |||||
![]() | 1871157 | Somfy | 1871157 | JeeZigbee | zigbee | Documentation | 2026-08-27 02:40:24 | |||||
![]() | 1871215B | Somfy | 1871215B | JeeZigbee | zigbee | Puissance | Documentation | 2026-08-27 02:40:24 | ||||
![]() | 1811680 | Somfy | 1811680 | JeeZigbee | zigbee | Documentation | 2026-08-27 02:40:23 | |||||
![]() | 1811681 | Somfy | 1811681 | JeeZigbee | zigbee | Présence | Documentation | 2026-08-27 02:40:23 | ||||
![]() | 1822647A | Somfy | 1822647A | JeeZigbee | zigbee | Puissance | Documentation | 2026-08-27 02:40:23 | ||||
![]() | 1746730V7 | Philips | 1746730V7 | JeeZigbee | zigbee | Documentation | 2026-08-27 02:40:22 | |||||
![]() | 1800194 | Somfy | 1800194 | JeeZigbee | zigbee | Documentation | 2026-08-27 02:40:22 | |||||
![]() | 1800195 | Somfy | 1800195 | JeeZigbee | zigbee | Documentation | 2026-08-27 02:40:22 | |||||
![]() | 1746547P7 | Philips | 1746547P7 | JeeZigbee | zigbee | Documentation | 2026-08-27 02:40:21 | |||||
![]() | 1746630P7 | Philips | 1746630P7 | JeeZigbee | zigbee | Documentation | 2026-08-27 02:40:21 | |||||
![]() | 1746630V7 | Philips | 1746630V7 | JeeZigbee | zigbee | Documentation | 2026-08-27 02:40:21 | |||||
![]() | 1746430P7 | Philips | 1746430P7 | JeeZigbee | zigbee | Documentation | 2026-08-27 02:40:20 | |||||
![]() | 1746447P7 | Philips | 1746447P7 | JeeZigbee | zigbee | Documentation | 2026-08-27 02:40:20 | |||||
![]() | 1746530P7 | Philips | 1746530P7 | JeeZigbee | zigbee | Documentation | 2026-08-27 02:40:20 | |||||
![]() | 1746130P7 | Philips | 1746130P7 | JeeZigbee | zigbee | Documentation | 2026-08-27 02:40:19 | |||||
![]() | 1746230V7 | Philips | 1746230V7 | JeeZigbee | zigbee | Documentation | 2026-08-27 02:40:19 | |||||
![]() | 1746330P7 | Philips | 1746330P7 | JeeZigbee | zigbee | Documentation | 2026-08-27 02:40:19 | |||||
![]() | 1745730V7 | Philips | 1745730V7 | JeeZigbee | zigbee | Documentation | 2026-08-27 02:40:18 | |||||
![]() | 1745930P7 | Philips | 1745930P7 | JeeZigbee | zigbee | Documentation | 2026-08-27 02:40:18 | |||||
![]() | 1745930V7 | Philips | 1745930V7 | JeeZigbee | zigbee | Documentation | 2026-08-27 02:40:18 | |||||
![]() | 1745430P7 | Philips | 1745430P7 | JeeZigbee | zigbee | Documentation | 2026-08-27 02:40:17 | |||||
![]() | 1745530P7 | Philips | 1745530P7 | JeeZigbee | zigbee | Documentation | 2026-08-27 02:40:17 | |||||
![]() | 1745630P7 | Philips | 1745630P7 | JeeZigbee | zigbee | Documentation | 2026-08-27 02:40:17 | |||||
![]() | 1744130P7 | Philips | 1744130P7 | JeeZigbee | zigbee | Documentation | 2026-08-27 02:40:16 | |||||
![]() | 1744230P7 | Philips | 1744230P7 | JeeZigbee | zigbee | Documentation | 2026-08-27 02:40:16 | |||||
![]() | 1745130P7 | Philips | 1745130P7 | JeeZigbee | zigbee | Documentation | 2026-08-27 02:40:16 | |||||
![]() | 1743830P7 | Philips | 1743830P7 | JeeZigbee | zigbee | Documentation | 2026-08-27 02:40:15 | |||||
![]() | 1743830V7 | Philips | 1743830V7 | JeeZigbee | zigbee | Documentation | 2026-08-27 02:40:15 | |||||
![]() | 1743930P7 | Philips | 1743930P7 | JeeZigbee | zigbee | Documentation | 2026-08-27 02:40:15 | |||||
![]() | 17435/30/P7 | Philips | 17435/30/P7 | JeeZigbee | zigbee | Documentation | 2026-08-27 02:40:14 | |||||
![]() | 17436/30/P7 | Philips | 17436/30/P7 | JeeZigbee | zigbee | Documentation | 2026-08-27 02:40:14 | |||||
![]() | 1743730P7 | Philips | 1743730P7 | JeeZigbee | zigbee | Documentation | 2026-08-27 02:40:14 | |||||
![]() | 1743130P7 | Philips | 1743130P7 | JeeZigbee | zigbee | Documentation | 2026-08-27 02:40:13 | |||||
![]() | 1743230P7 | Philips | 1743230P7 | JeeZigbee | zigbee | Documentation | 2026-08-27 02:40:13 | |||||
![]() | 1743430P7 | Philips | 1743430P7 | JeeZigbee | zigbee | Documentation | 2026-08-27 02:40:13 |
























































































































































































































































